createdAt,value
2022-10-03T00:01:45.927Z,101400.84
2022-10-03T00:04:42.174Z,101396.91
2022-10-03T00:07:40.382Z,101403.94
2022-10-03T00:10:22.431Z,101411.78
2022-10-03T00:12:54.669Z,101402.53
2022-10-03T00:15:46.230Z,101411.75
2022-10-03T00:18:49.896Z,101419.59
2022-10-03T00:21:25.511Z,101414.84
2022-10-03T00:24:00.072Z,101412.91
2022-10-03T00:27:00.580Z,101414.28
2022-10-03T00:29:36.427Z,101420.50
2022-10-03T00:32:09.739Z,101425.50
2022-10-03T00:35:12.204Z,101422.16
2022-10-03T00:37:58.123Z,101428.59
2022-10-03T00:40:56.387Z,101428.63
2022-10-03T00:43:34.580Z,101432.81
2022-10-03T00:46:33.107Z,101439.03
2022-10-03T00:49:32.272Z,101440.66
2022-10-03T00:52:27.925Z,101437.91
2022-10-03T00:55:00.756Z,101448.59
2022-10-03T00:58:04.756Z,101443.22
2022-10-03T01:00:33.820Z,101445.81
2022-10-03T01:03:11.898Z,101444.72
2022-10-03T01:05:45.799Z,101452.53
2022-10-03T01:08:36.629Z,101436.00
2022-10-03T01:11:17.619Z,101448.63
2022-10-03T01:13:56.450Z,101440.78
2022-10-03T01:16:37.886Z,101457.59
2022-10-03T01:19:46.716Z,101457.34
2022-10-03T01:22:36.875Z,101453.38
2022-10-03T01:25:30.427Z,101454.56
2022-10-03T01:28:37.452Z,101457.38
2022-10-03T01:31:10.208Z,101468.28
2022-10-03T01:33:48.324Z,101459.91
2022-10-03T01:36:33.384Z,101461.03
2022-10-03T01:39:07.389Z,101473.09
2022-10-03T01:41:51.823Z,101471.97
2022-10-03T01:44:18.132Z,101468.91
2022-10-03T01:47:05.423Z,101472.53
2022-10-03T01:49:56.897Z,101465.22
2022-10-03T01:53:02.307Z,101479.84
2022-10-03T01:55:56.355Z,101473.38
2022-10-03T01:58:27.070Z,101478.16
2022-10-03T02:01:12.073Z,101482.66
2022-10-03T02:04:04.365Z,101482.94
2022-10-03T02:06:49.742Z,101485.47
2022-10-03T02:09:47.502Z,101486.59
2022-10-03T02:12:25.276Z,101487.72
2022-10-03T02:14:59.730Z,101495.56
2022-10-03T02:18:03.747Z,101498.94
2022-10-03T02:20:45.583Z,101498.94
2022-10-03T02:23:31.573Z,101498.91
2022-10-03T02:26:35.327Z,101495.84
2022-10-03T02:29:31.217Z,101493.31
2022-10-03T02:32:46.027Z,101494.44
2022-10-03T02:35:18.375Z,101497.25
2022-10-03T02:38:05.958Z,101509.03
2022-10-03T02:41:08.913Z,101496.97
2022-10-03T02:44:02.683Z,101500.03
2022-10-03T02:47:01.150Z,101511.28
2022-10-03T02:49:46.660Z,101503.69
2022-10-03T02:52:40.323Z,101510.72
2022-10-03T02:55:31.459Z,101498.34
2022-10-03T02:58:36.812Z,101509.03
2022-10-03T03:01:29.722Z,101511.84
2022-10-03T03:04:21.208Z,101512.69
2022-10-03T03:07:02.538Z,101514.09
2022-10-03T03:10:02.850Z,101520.28
2022-10-03T03:12:53.823Z,101515.19
2022-10-03T03:15:39.052Z,101520.25
2022-10-03T03:18:33.107Z,101518.00
2022-10-03T03:21:15.199Z,101523.06
2022-10-03T03:24:08.345Z,101519.72
2022-10-03T03:27:05.391Z,101511.53
2022-10-03T03:29:55.298Z,101517.16
2022-10-03T03:32:53.039Z,101522.50
2022-10-03T03:35:33.823Z,101525.31
2022-10-03T03:38:31.242Z,101531.16
2022-10-03T03:41:27.053Z,101533.16
2022-10-03T03:44:08.691Z,101542.69
2022-10-03T03:47:01.620Z,101535.97
2022-10-03T03:50:06.150Z,101539.31
2022-10-03T03:52:41.411Z,101539.91
2022-10-03T03:55:34.104Z,101549.16
2022-10-03T03:58:17.002Z,101555.06
2022-10-03T04:01:00.306Z,101550.59
2022-10-03T04:03:52.862Z,101555.63
2022-10-03T04:06:34.968Z,101546.34
2022-10-03T04:09:31.023Z,101548.28
2022-10-03T04:12:24.704Z,101542.16
2022-10-03T04:15:03.879Z,101547.47
2022-10-03T04:18:21.852Z,101548.31
2022-10-03T04:21:13.633Z,101550.53
2022-10-03T04:24:07.855Z,101554.41
2022-10-03T04:27:03.457Z,101558.69
2022-10-03T04:29:57.809Z,101555.00
2022-10-03T04:32:40.059Z,101551.66
2022-10-03T04:35:25.529Z,101562.25
2022-10-03T04:38:23.663Z,101553.34
2022-10-03T04:41:12.342Z,101556.72
2022-10-03T04:43:53.736Z,101563.97
2022-10-03T04:46:57.444Z,101565.41
2022-10-03T04:49:53.610Z,101569.31
2022-10-03T04:52:32.014Z,101570.44
2022-10-03T04:55:37.298Z,101574.06
2022-10-03T04:58:32.975Z,101570.75
2022-10-03T05:01:13.131Z,101568.44
2022-10-03T05:03:49.046Z,101569.84
2022-10-03T05:06:31.414Z,101578.28
2022-10-03T05:09:16.847Z,101581.34
2022-10-03T05:12:15.131Z,101584.75
2022-10-03T05:15:11.614Z,101593.94
2022-10-03T05:17:52.533Z,101590.88
2022-10-03T05:20:44.537Z,101594.28
2022-10-03T05:23:31.217Z,101588.94
2022-10-03T05:26:43.741Z,101592.59
2022-10-03T05:29:36.446Z,101589.50
2022-10-03T05:32:20.933Z,101592.88
2022-10-03T05:35:15.357Z,101594.81
2022-10-03T05:37:44.474Z,101608.84
2022-10-03T05:40:26.871Z,101602.59
2022-10-03T05:43:03.165Z,101608.28
2022-10-03T05:45:41.540Z,101606.59
2022-10-03T05:48:10.595Z,101612.81
2022-10-03T05:50:58.247Z,101615.28
2022-10-03T05:54:02.256Z,101607.72
2022-10-03T05:56:41.052Z,101604.34
2022-10-03T05:59:43.161Z,101611.66
2022-10-03T06:02:51.113Z,101607.22
2022-10-03T06:05:32.707Z,101613.09
2022-10-03T06:08:15.782Z,101628.03
2022-10-03T06:10:53.210Z,101627.44
2022-10-03T06:13:41.554Z,101636.13
2022-10-03T06:16:32.332Z,101633.66
2022-10-03T06:19:17.070Z,101639.78
2022-10-03T06:21:58.441Z,101641.19
2022-10-03T06:25:06.155Z,101644.81
2022-10-03T06:27:32.898Z,101651.03
2022-10-03T06:30:12.153Z,101652.47
2022-10-03T06:33:27.342Z,101652.75
2022-10-03T06:36:28.992Z,101652.69
2022-10-03T06:39:27.476Z,101663.38
2022-10-03T06:42:23.446Z,101661.13
2022-10-03T06:45:12.645Z,101662.81
2022-10-03T06:48:03.299Z,101660.84
2022-10-03T06:50:46.102Z,101669.06
2022-10-03T06:53:23.493Z,101674.66
2022-10-03T06:56:07.820Z,101667.34
2022-10-03T06:58:46.424Z,101672.66
2022-10-03T07:01:12.912Z,101676.91
2022-10-03T07:04:17.213Z,101673.59
2022-10-03T07:07:07.418Z,101677.47
2022-10-03T07:09:57.999Z,101674.41
2022-10-03T07:12:53.917Z,101689.06
2022-10-03T07:19:22.736Z,101690.56
2022-10-03T07:22:23.486Z,101699.78
2022-10-03T07:25:22.637Z,101706.25
2022-10-03T07:28:18.230Z,101706.59
2022-10-03T07:31:08.604Z,101710.53
2022-10-03T07:33:54.760Z,101717.56
2022-10-03T07:36:58.736Z,101712.72
2022-10-03T07:39:45.143Z,101718.66
2022-10-03T07:42:44.794Z,101712.19
2022-10-03T07:45:30.312Z,101711.91
2022-10-03T07:48:13.875Z,101712.47
2022-10-03T07:51:09.724Z,101718.44
2022-10-03T07:54:10.249Z,101723.19
2022-10-03T07:57:21.831Z,101727.44
2022-10-03T08:00:10.293Z,101733.25
2022-10-03T08:03:03.777Z,101736.69
2022-10-03T08:06:07.900Z,101736.69
2022-10-03T08:08:56.829Z,101750.75
2022-10-03T08:11:47.756Z,101749.03
2022-10-03T08:14:19.226Z,101753.53
2022-10-03T08:17:15.618Z,101759.19
2022-10-03T08:20:01.822Z,101756.09
2022-10-03T08:22:55.963Z,101755.56
2022-10-03T08:25:56.230Z,101761.75
2022-10-03T08:28:52.042Z,101762.56
2022-10-03T08:31:42.392Z,101757.22
2022-10-03T08:34:50.299Z,101767.03
2022-10-03T08:37:35.478Z,101763.13
2022-10-03T08:40:39.477Z,101767.06
2022-10-03T08:43:14.757Z,101767.06
2022-10-03T08:45:47.047Z,101765.69
2022-10-03T08:48:51.413Z,101766.53
2022-10-03T08:51:54.585Z,101781.16
2022-10-03T08:54:53.413Z,101778.06
2022-10-03T08:57:36.329Z,101778.34
2022-10-03T09:00:04.426Z,101775.53
2022-10-03T09:03:32.671Z,101771.03
2022-10-03T09:06:09.417Z,101775.47
2022-10-03T09:09:10.000Z,101771.56
2022-10-03T09:12:01.046Z,101772.97
2022-10-03T09:14:38.523Z,101769.03
2022-10-03T09:17:53.221Z,101774.06
2022-10-03T09:20:54.864Z,101765.31
2022-10-03T09:23:56.044Z,101765.06
2022-10-03T09:26:44.043Z,101776.59
2022-10-03T09:29:32.509Z,101774.06
2022-10-03T09:32:38.399Z,101769.78
2022-10-03T09:35:34.543Z,101782.78
2022-10-03T09:38:39.996Z,101771.44
2022-10-03T09:41:37.992Z,101772.94
2022-10-03T09:44:15.404Z,101777.09
2022-10-03T09:47:26.609Z,101776.00
2022-10-03T09:50:36.620Z,101776.31
2022-10-03T09:53:18.683Z,101785.84
2022-10-03T09:56:22.426Z,101789.47
2022-10-03T09:59:20.866Z,101784.94
2022-10-03T10:02:11.720Z,101792.28
2022-10-03T10:04:57.321Z,101789.72
2022-10-03T10:08:04.959Z,101781.53
2022-10-03T10:10:57.162Z,101780.97
2022-10-03T10:14:13.782Z,101783.78
2022-10-03T10:17:47.851Z,101788.56
2022-10-03T10:20:24.356Z,101783.16
2022-10-03T10:23:10.387Z,101786.19
2022-10-03T10:25:58.905Z,101790.16
2022-10-03T10:28:59.053Z,101790.41
2022-10-03T10:31:37.514Z,101779.34
2022-10-03T10:34:22.585Z,101794.88
2022-10-03T10:37:07.583Z,101786.19
2022-10-03T10:40:03.783Z,101765.38
2022-10-03T10:43:07.762Z,101776.81
2022-10-03T10:45:42.925Z,101776.72
2022-10-03T10:49:01.418Z,101777.19
2022-10-03T10:52:05.164Z,101763.91
2022-10-03T10:55:03.388Z,101762.47
2022-10-03T10:58:05.114Z,101770.88
2022-10-03T11:00:54.075Z,101772.78
2022-10-03T11:03:54.766Z,101774.44
2022-10-03T11:06:59.436Z,101790.06
2022-10-03T11:09:55.612Z,101777.72
2022-10-03T11:12:56.284Z,101771.72
2022-10-03T11:15:47.713Z,101780.47
2022-10-03T11:18:32.708Z,101788.56
2022-10-03T11:21:23.796Z,101788.09
2022-10-03T11:24:03.812Z,101785.59
2022-10-03T11:26:59.419Z,101786.75
2022-10-03T11:30:03.539Z,101794.72
2022-10-03T11:33:11.518Z,101790.44
2022-10-03T11:36:27.817Z,101790.16
2022-10-03T11:39:04.803Z,101788.50
2022-10-03T11:41:41.214Z,101784.63
2022-10-03T11:44:19.434Z,101788.19
2022-10-03T11:47:02.996Z,101783.34
2022-10-03T11:49:54.868Z,101771.97
2022-10-03T11:52:35.268Z,101773.16
2022-10-03T11:55:24.277Z,101776.19
2022-10-03T11:58:08.205Z,101772.41
2022-10-03T12:00:38.984Z,101772.34
2022-10-03T12:03:15.410Z,101768.09
2022-10-03T12:06:17.463Z,101768.03
2022-10-03T12:09:07.988Z,101759.72
2022-10-03T12:11:46.712Z,101762.53
2022-10-03T12:14:26.632Z,101761.34
2022-10-03T12:17:10.787Z,101754.03
2022-10-03T12:19:42.485Z,101748.69
2022-10-03T12:22:28.982Z,101756.38
2022-10-03T12:25:02.381Z,101750.91
2022-10-03T12:27:55.481Z,101757.59
2022-10-03T12:30:22.503Z,101756.84
2022-10-03T12:33:03.901Z,101744.72
2022-10-03T12:35:38.624Z,101748.09
2022-10-03T12:38:25.243Z,101761.31
2022-10-03T12:41:04.558Z,101753.91
2022-10-03T12:43:41.714Z,101755.94
2022-10-03T12:46:35.024Z,101746.44
2022-10-03T12:49:17.623Z,101741.81
2022-10-03T12:51:46.873Z,101746.75
2022-10-03T12:54:44.082Z,101749.38
2022-10-03T12:57:44.546Z,101746.63
2022-10-03T13:00:21.939Z,101745.63
2022-10-03T13:03:17.262Z,101738.00
2022-10-03T13:06:20.203Z,101746.69
2022-10-03T13:09:16.496Z,101745.78
2022-10-03T13:12:00.027Z,101746.00
2022-10-03T13:15:17.699Z,101747.78
2022-10-03T13:17:57.832Z,101757.84
2022-10-03T13:20:37.003Z,101750.53
2022-10-03T13:23:23.652Z,101763.41
2022-10-03T13:25:59.932Z,101764.03
2022-10-03T13:28:36.693Z,101759.22
2022-10-03T13:31:19.204Z,101759.84
2022-10-03T13:33:52.202Z,101761.28
2022-10-03T13:37:00.551Z,101757.31
2022-10-03T13:39:40.593Z,101758.97
2022-10-03T13:42:19.231Z,101761.75
2022-10-03T13:44:48.347Z,101756.81
2022-10-03T13:47:51.801Z,101760.31
2022-10-03T13:50:34.196Z,101760.13
2022-10-03T13:53:05.885Z,101771.56
2022-10-03T13:56:04.695Z,101758.69
2022-10-03T13:58:50.263Z,101761.19
2022-10-03T14:01:42.656Z,101765.53
2022-10-03T14:04:43.284Z,101757.25
2022-10-03T14:07:14.829Z,101760.13
2022-10-03T14:10:04.318Z,101755.72
2022-10-03T14:12:55.771Z,101754.00
2022-10-03T14:15:26.835Z,101751.31
2022-10-03T14:18:37.410Z,101746.00
2022-10-03T14:21:28.601Z,101752.38
2022-10-03T14:24:06.970Z,101749.69
2022-10-03T14:26:41.192Z,101749.31
2022-10-03T14:29:10.592Z,101749.69
2022-10-03T14:31:54.818Z,101754.97
2022-10-03T14:34:41.442Z,101742.88
2022-10-03T14:37:18.850Z,101747.09
2022-10-03T14:40:23.365Z,101745.47
2022-10-03T14:43:02.349Z,101736.53
2022-10-03T14:45:33.434Z,101739.50
2022-10-03T14:48:08.133Z,101740.28
2022-10-03T14:50:40.187Z,101735.16
2022-10-03T14:53:24.035Z,101730.72
2022-10-03T14:56:02.844Z,101739.50
2022-10-03T14:58:34.284Z,101740.44
2022-10-03T15:01:02.784Z,101729.91
2022-10-03T15:03:34.108Z,101731.09
2022-10-03T15:06:36.188Z,101737.00
2022-10-03T15:09:09.921Z,101730.94
2022-10-03T15:11:45.453Z,101735.66
2022-10-03T15:14:12.621Z,101726.56
2022-10-03T15:16:46.044Z,101729.25
2022-10-03T15:19:26.051Z,101729.94
2022-10-03T15:21:53.478Z,101728.34
2022-10-03T15:24:28.419Z,101725.78
2022-10-03T15:27:01.609Z,101733.59
2022-10-03T15:29:30.719Z,101728.47
2022-10-03T15:31:58.202Z,101732.28
2022-10-03T15:34:33.766Z,101725.78
2022-10-03T15:37:07.144Z,101728.31
2022-10-03T15:39:43.923Z,101737.72
2022-10-03T15:42:10.383Z,101733.97
2022-10-03T15:44:39.705Z,101732.94
2022-10-03T15:47:09.199Z,101727.91
2022-10-03T15:49:38.934Z,101730.91
2022-10-03T15:52:16.880Z,101730.47
2022-10-03T15:54:54.703Z,101741.09
2022-10-03T15:57:33.111Z,101736.19
2022-10-03T16:00:03.567Z,101726.31
2022-10-03T16:02:39.383Z,101734.13
2022-10-03T16:05:07.395Z,101738.66
2022-10-03T16:07:49.074Z,101732.03
2022-10-03T16:10:24.789Z,101736.94
2022-10-03T16:13:04.628Z,101736.94
2022-10-03T16:16:19.090Z,101736.44
2022-10-03T16:18:51.869Z,101743.56
2022-10-03T16:21:49.188Z,101735.00
2022-10-03T16:24:32.744Z,101745.00
2022-10-03T16:27:07.675Z,101737.22
2022-10-03T16:29:38.928Z,101736.75
2022-10-03T16:32:09.814Z,101745.28
2022-10-03T16:34:40.976Z,101733.50
2022-10-03T16:37:18.208Z,101736.09
2022-10-03T16:39:52.874Z,101736.97
2022-10-03T16:42:25.682Z,101740.97
2022-10-03T16:44:58.098Z,101740.53
2022-10-03T16:47:37.784Z,101738.44
2022-10-03T16:50:24.764Z,101745.44
2022-10-03T16:52:54.161Z,101746.97
2022-10-03T16:55:20.519Z,101737.13
2022-10-03T16:57:52.678Z,101728.94
2022-10-03T17:00:26.964Z,101735.09
2022-10-03T17:02:55.625Z,101749.19
2022-10-03T17:05:22.898Z,101763.03
2022-10-03T17:07:54.670Z,101744.19
2022-10-03T17:10:30.804Z,101767.41
2022-10-03T17:13:03.653Z,101768.28
2022-10-03T17:15:34.467Z,101764.84
2022-10-03T17:18:08.219Z,101766.69
2022-10-03T17:20:50.962Z,101753.78
2022-10-03T17:23:27.621Z,101757.41
2022-10-03T17:26:03.488Z,101758.38
2022-10-03T17:28:44.610Z,101754.44
2022-10-03T17:31:31.506Z,101753.94
2022-10-03T17:34:08.862Z,101749.94
2022-10-03T17:36:45.925Z,101749.06
2022-10-03T17:39:46.784Z,101744.84
2022-10-03T17:42:31.443Z,101751.56
2022-10-03T17:45:12.255Z,101759.16
2022-10-03T17:47:58.829Z,101750.94
2022-10-03T17:50:38.060Z,101748.81
2022-10-03T17:53:04.946Z,101754.19
2022-10-03T17:55:40.658Z,101755.59
2022-10-03T17:58:19.164Z,101757.88
2022-10-03T18:00:45.503Z,101754.78
2022-10-03T18:03:40.149Z,101752.78
2022-10-03T18:06:37.439Z,101761.88
2022-10-03T18:09:10.581Z,101756.50
2022-10-03T18:11:40.353Z,101748.88
2022-10-03T18:14:23.814Z,101753.38
2022-10-03T18:17:04.989Z,101756.75
2022-10-03T18:19:54.747Z,101753.69
2022-10-03T18:22:36.065Z,101757.31
2022-10-03T18:25:34.495Z,101753.66
2022-10-03T18:28:24.515Z,101757.88
2022-10-03T18:31:02.693Z,101756.50
2022-10-03T18:33:51.027Z,101748.00
2022-10-03T18:36:23.855Z,101757.53
2022-10-03T18:38:55.748Z,101753.63
2022-10-03T18:41:22.176Z,101757.28
2022-10-03T18:43:59.871Z,101753.00
2022-10-03T18:46:39.020Z,101757.31
2022-10-03T18:49:35.650Z,101749.47
2022-10-03T18:52:31.075Z,101757.97
2022-10-03T18:55:02.677Z,101762.47
2022-10-03T18:57:38.056Z,101752.88
2022-10-03T19:00:18.242Z,101746.16
2022-10-03T19:02:52.193Z,101752.03
2022-10-03T19:05:26.332Z,101740.22
2022-10-03T19:08:08.055Z,101748.94
2022-10-03T19:10:51.424Z,101747.84
2022-10-03T19:13:24.614Z,101742.50
2022-10-03T19:16:09.454Z,101749.56
2022-10-03T19:18:41.846Z,101756.06
2022-10-03T19:21:18.550Z,101754.09
2022-10-03T19:24:02.732Z,101754.94
2022-10-03T19:26:36.323Z,101752.41
2022-10-03T19:29:25.296Z,101754.94
2022-10-03T19:31:55.731Z,101754.94
2022-10-03T19:34:28.768Z,101760.31
2022-10-03T19:36:57.461Z,101753.84
2022-10-03T19:39:27.859Z,101757.19
2022-10-03T19:42:18.460Z,101764.22
2022-10-03T19:44:44.865Z,101759.16
2022-10-03T19:47:22.117Z,101757.19
2022-10-03T19:50:06.907Z,101760.00
2022-10-03T19:52:35.517Z,101762.28
2022-10-03T19:55:12.684Z,101762.81
2022-10-03T19:58:01.353Z,101763.97
2022-10-03T20:00:34.824Z,101758.63
2022-10-03T20:03:16.440Z,101761.72
2022-10-03T20:05:53.308Z,101759.16
2022-10-03T20:08:22.849Z,101760.31
2022-10-03T20:11:15.885Z,101757.81
2022-10-03T20:13:47.944Z,101754.41
2022-10-03T20:16:16.934Z,101757.50
2022-10-03T20:18:48.587Z,101755.00
2022-10-03T20:21:19.907Z,101755.25
2022-10-03T20:23:48.080Z,101749.91
2022-10-03T20:26:29.706Z,101756.09
2022-10-03T20:29:20.419Z,101752.19
2022-10-03T20:31:47.673Z,101749.63
2022-10-03T20:34:16.699Z,101753.00
2022-10-03T20:36:49.384Z,101748.50
2022-10-03T20:39:23.129Z,101751.34
2022-10-03T20:42:17.818Z,101754.41
2022-10-03T20:44:55.407Z,101767.34
2022-10-03T20:47:47.591Z,101761.44
2022-10-03T20:50:25.697Z,101754.41
2022-10-03T20:53:03.782Z,101761.72
2022-10-03T20:55:44.120Z,101762.84
2022-10-03T20:58:18.024Z,101765.09
2022-10-03T21:00:48.754Z,101761.72
2022-10-03T21:03:38.252Z,101765.38
2022-10-03T21:06:17.564Z,101764.28
2022-10-03T21:08:44.537Z,101770.16
2022-10-03T21:11:10.852Z,101767.34
2022-10-03T21:13:49.708Z,101766.50
2022-10-03T21:16:40.861Z,101763.69
2022-10-03T21:19:15.308Z,101767.38
2022-10-03T21:21:48.512Z,101765.41
2022-10-03T21:24:26.930Z,101762.59
2022-10-03T21:26:58.396Z,101754.16
2022-10-03T21:29:24.731Z,101756.66
2022-10-03T21:32:14.307Z,101761.75
2022-10-03T21:35:02.121Z,101755.84
2022-10-03T21:38:04.595Z,101752.19
2022-10-03T21:40:49.372Z,101755.25
2022-10-03T21:43:18.513Z,101753.28
2022-10-03T21:46:09.930Z,101756.97
2022-10-03T21:49:01.797Z,101750.19
2022-10-03T21:51:37.856Z,101748.53
2022-10-03T21:54:33.840Z,101753.84
2022-10-03T21:57:32.641Z,101748.53
2022-10-03T22:00:16.939Z,101741.50
2022-10-03T22:03:14.098Z,101737.28
2022-10-03T22:06:03.377Z,101747.38
2022-10-03T22:08:34.080Z,101747.69
2022-10-03T22:11:28.551Z,101748.25
2022-10-03T22:14:02.047Z,101740.94
2022-10-03T22:16:50.307Z,101737.00
2022-10-03T22:19:35.488Z,101744.88
2022-10-03T22:22:22.116Z,101734.19
2022-10-03T22:25:19.300Z,101740.09
2022-10-03T22:28:17.339Z,101742.34
2022-10-03T22:30:54.973Z,101738.94
2022-10-03T22:33:49.428Z,101736.13
2022-10-03T22:36:16.699Z,101727.69
2022-10-03T22:38:44.638Z,101728.53
2022-10-03T22:41:16.354Z,101726.28
2022-10-03T22:43:44.240Z,101726.28
2022-10-03T22:46:18.071Z,101726.84
2022-10-03T22:48:50.064Z,101729.41
2022-10-03T22:51:19.963Z,101727.44
2022-10-03T22:53:51.674Z,101726.59
2022-10-03T22:56:40.250Z,101720.97
2022-10-03T22:59:11.611Z,101724.88
2022-10-03T23:01:42.741Z,101728.25
2022-10-03T23:04:16.760Z,101724.88
2022-10-03T23:07:05.312Z,101724.31
2022-10-03T23:09:48.339Z,101719.00
2022-10-03T23:12:16.734Z,101722.63
2022-10-03T23:14:48.026Z,101723.22
2022-10-03T23:17:43.326Z,101716.16
2022-10-03T23:20:46.140Z,101721.25
2022-10-03T23:23:18.775Z,101722.94
2022-10-03T23:26:00.792Z,101718.41
2022-10-03T23:28:49.851Z,101723.22
2022-10-03T23:31:54.082Z,101722.38
2022-10-03T23:34:35.559Z,101729.13
2022-10-03T23:37:11.140Z,101729.69
2022-10-03T23:40:04.908Z,101730.78
2022-10-03T23:42:31.225Z,101732.47
2022-10-03T23:45:10.799Z,101729.38
2022-10-03T23:47:54.871Z,101736.41
2022-10-03T23:50:47.054Z,101741.50
2022-10-03T23:53:41.126Z,101746.81
2022-10-03T23:56:22.741Z,101736.97
2022-10-03T23:58:58.270Z,101742.59
